GLO1854 SBGL-SBNF
Flight info
| Callsign | GLO1854 |
|---|---|
| Flight time | N/A |
| Altitude | 36000 |
| Route | NAXOP DCT KOXAG DCT PUBIS |
| Aircraft | B738/M-SDE2E3FGHIRWXY/LB1 |
Departure
| Time | 2026-05-03 20:15 |
|---|---|
| Airport | Rio Galeão – Tom Jobim International Airport (SBGL) |
Arrival
| Time | N/A |
|---|---|
| Airport | Ministro Victor Konder International Airport (SBNF) |
| Time | Latitude | Longitude | Altitude | Speed | Heading |
|---|---|---|---|---|---|
| 2026-05-03 20:15 | -22.96507 | -43.06057 | 13657 ft | 360 kts | 219° |
| 2026-05-03 20:15 | -22.98535 | -43.07807 | 13985 ft | 373 kts | 220° |
| 2026-05-03 20:15 | -23.00625 | -43.09612 | 14540 ft | 379 kts | 220° |
| 2026-05-03 20:15 | -23.02745 | -43.11459 | 15216 ft | 381 kts | 221° |
| 2026-05-03 20:16 | -23.04840 | -43.13293 | 15854 ft | 384 kts | 221° |
| 2026-05-03 20:16 | -23.06989 | -43.15175 | 16468 ft | 388 kts | 221° |
| 2026-05-03 20:16 | -23.09105 | -43.17029 | 17123 ft | 390 kts | 222° |
| 2026-05-03 20:16 | -23.11281 | -43.18935 | 17707 ft | 393 kts | 222° |
| 2026-05-03 20:17 | -23.13430 | -43.20818 | 18394 ft | 393 kts | 222° |
| 2026-05-03 20:17 | -23.15627 | -43.22741 | 19055 ft | 394 kts | 222° |
| 2026-05-03 20:17 | -23.17799 | -43.24645 | 19737 ft | 393 kts | 222° |
| 2026-05-03 20:17 | -23.19979 | -43.26554 | 20388 ft | 393 kts | 223° |
| 2026-05-03 20:18 | -23.22151 | -43.28458 | 21020 ft | 393 kts | 222° |
| 2026-05-03 20:18 | -23.24353 | -43.30389 | 21611 ft | 394 kts | 223° |
| 2026-05-03 20:18 | -23.26542 | -43.32310 | 22231 ft | 393 kts | 223° |
| 2026-05-03 20:18 | -23.28703 | -43.34237 | 22807 ft | 392 kts | 225° |
| 2026-05-03 20:19 | -23.30685 | -43.36372 | 23263 ft | 392 kts | 232° |
| 2026-05-03 20:19 | -23.32401 | -43.38761 | 23665 ft | 393 kts | 239° |
| 2026-05-03 20:19 | -23.33775 | -43.41360 | 24171 ft | 392 kts | 246° |
| 2026-05-03 20:19 | -23.34827 | -43.44147 | 24653 ft | 392 kts | 253° |
| 2026-05-03 20:20 | -23.35609 | -43.47034 | 25059 ft | 394 kts | 256° |
| 2026-05-03 20:20 | -23.36316 | -43.50021 | 25514 ft | 396 kts | 257° |
| 2026-05-03 20:20 | -23.37012 | -43.53031 | 25945 ft | 398 kts | 257° |
| 2026-05-03 20:20 | -23.37701 | -43.56002 | 26377 ft | 400 kts | 257° |
| 2026-05-03 20:21 | -23.38373 | -43.58893 | 26839 ft | 400 kts | 257° |
| 2026-05-03 20:21 | -23.39058 | -43.61835 | 27228 ft | 402 kts | 257° |
| 2026-05-03 20:21 | -23.39746 | -43.64787 | 27741 ft | 400 kts | 257° |
| 2026-05-03 20:21 | -23.40427 | -43.67706 | 28465 ft | 394 kts | 258° |
| 2026-05-03 20:22 | -23.41093 | -43.70562 | 29094 ft | 390 kts | 259° |
| 2026-05-03 20:22 | -23.41759 | -43.73426 | 29553 ft | 389 kts | 259° |
| 2026-05-03 20:22 | -23.42417 | -43.76258 | 30064 ft | 387 kts | 259° |
| 2026-05-03 20:22 | -23.43074 | -43.79089 | 30499 ft | 387 kts | 259° |
| 2026-05-03 20:23 | -23.43732 | -43.81926 | 30939 ft | 386 kts | 259° |
| 2026-05-03 20:23 | -23.44390 | -43.84761 | 31384 ft | 385 kts | 259° |
| 2026-05-03 20:23 | -23.45042 | -43.87568 | 31839 ft | 383 kts | 259° |
| 2026-05-03 20:23 | -23.45685 | -43.90342 | 32172 ft | 384 kts | 259° |
| 2026-05-03 20:24 | -23.46335 | -43.93145 | 32561 ft | 383 kts | 260° |
| 2026-05-03 20:24 | -23.46986 | -43.95960 | 32913 ft | 383 kts | 260° |
| 2026-05-03 20:24 | -23.47645 | -43.98810 | 33312 ft | 382 kts | 259° |
| 2026-05-03 20:24 | -23.48290 | -44.01599 | 33805 ft | 379 kts | 259° |
| 2026-05-03 20:25 | -23.48932 | -44.04382 | 34301 ft | 376 kts | 259° |
| 2026-05-03 20:25 | -23.49567 | -44.07140 | 34788 ft | 372 kts | 259° |
| 2026-05-03 20:25 | -23.50194 | -44.09863 | 35213 ft | 370 kts | 259° |
| 2026-05-03 20:25 | -23.50870 | -44.12608 | 35634 ft | 368 kts | 257° |
| 2026-05-03 20:26 | -23.51713 | -44.15259 | 35980 ft | 370 kts | 251° |
| 2026-05-03 20:26 | -23.52896 | -44.17827 | 36167 ft | 376 kts | 246° |
| 2026-05-03 20:26 | -23.54274 | -44.20300 | 36175 ft | 380 kts | 244° |
| 2026-05-03 20:27 | -23.57177 | -44.25206 | 36177 ft | 376 kts | 243° |
| 2026-05-03 20:27 | -23.60000 | -44.29958 | 36179 ft | 373 kts | 243° |
| 2026-05-03 20:28 | -23.62820 | -44.34727 | 36178 ft | 376 kts | 244° |
| 2026-05-03 20:28 | -23.65637 | -44.39495 | 36172 ft | 375 kts | 243° |
| 2026-05-03 20:29 | -23.68422 | -44.44208 | 36175 ft | 372 kts | 243° |
| 2026-05-03 20:29 | -23.71220 | -44.48954 | 36172 ft | 373 kts | 243° |
| 2026-05-03 20:30 | -23.74037 | -44.53738 | 36176 ft | 375 kts | 243° |
| 2026-05-03 20:30 | -23.76854 | -44.58520 | 36174 ft | 373 kts | 243° |
| 2026-05-03 20:31 | -23.79677 | -44.63316 | 36175 ft | 373 kts | 243° |
| 2026-05-03 20:31 | -23.82476 | -44.68078 | 36175 ft | 372 kts | 243° |
| 2026-05-03 20:32 | -23.85271 | -44.72839 | 36174 ft | 371 kts | 243° |
| 2026-05-03 20:32 | -23.88051 | -44.77580 | 36175 ft | 373 kts | 244° |
| 2026-05-03 20:33 | -23.90834 | -44.82337 | 36172 ft | 371 kts | 244° |
| 2026-05-03 20:33 | -23.93606 | -44.87071 | 36175 ft | 370 kts | 243° |
| 2026-05-03 20:34 | -23.96390 | -44.91836 | 36175 ft | 370 kts | 244° |
| 2026-05-03 20:34 | -23.99161 | -44.96580 | 36173 ft | 370 kts | 244° |
| 2026-05-03 20:35 | -24.01947 | -45.01348 | 36173 ft | 370 kts | 244° |
| 2026-05-03 20:35 | -24.04715 | -45.06095 | 36173 ft | 369 kts | 244° |
| 2026-05-03 20:36 | -24.07462 | -45.10801 | 36173 ft | 369 kts | 244° |
| 2026-05-03 20:36 | -24.10226 | -45.15554 | 36173 ft | 369 kts | 244° |
| 2026-05-03 20:37 | -24.12969 | -45.20276 | 36173 ft | 368 kts | 243° |
| 2026-05-03 20:37 | -24.15725 | -45.25020 | 36173 ft | 369 kts | 244° |
| 2026-05-03 20:38 | -24.18487 | -45.29777 | 36173 ft | 370 kts | 244° |
| 2026-05-03 20:38 | -24.21240 | -45.34522 | 36173 ft | 366 kts | 244° |
| 2026-05-03 20:39 | -24.23969 | -45.39239 | 36174 ft | 369 kts | 244° |
| 2026-05-03 20:39 | -24.26731 | -45.44016 | 36173 ft | 370 kts | 244° |
| 2026-05-03 20:40 | -24.29469 | -45.48750 | 36173 ft | 366 kts | 243° |
| 2026-05-03 20:40 | -24.32198 | -45.53474 | 36174 ft | 368 kts | 244° |
| 2026-05-03 20:41 | -24.34937 | -45.58225 | 36173 ft | 367 kts | 243° |
| 2026-05-03 20:41 | -24.37657 | -45.62940 | 36174 ft | 366 kts | 244° |
| 2026-05-03 20:42 | -24.40390 | -45.67690 | 36174 ft | 367 kts | 244° |
| 2026-05-03 20:42 | -24.43102 | -45.72404 | 36172 ft | 365 kts | 244° |
| 2026-05-03 20:43 | -24.45812 | -45.77116 | 36174 ft | 365 kts | 244° |
| 2026-05-03 20:43 | -24.48521 | -45.81834 | 36173 ft | 364 kts | 244° |
| 2026-05-03 20:44 | -24.51210 | -45.86528 | 36174 ft | 364 kts | 244° |
| 2026-05-03 20:44 | -24.53938 | -45.91287 | 36173 ft | 365 kts | 244° |
| 2026-05-03 20:45 | -24.56639 | -45.95996 | 36174 ft | 364 kts | 244° |
| 2026-05-03 20:45 | -24.59348 | -46.00740 | 36174 ft | 365 kts | 244° |
| 2026-05-03 20:46 | -24.61532 | -46.04559 | 36174 ft | 363 kts | 244° |
| 2026-05-03 20:46 | -24.64217 | -46.09259 | 36175 ft | 362 kts | 244° |
| 2026-05-03 20:47 | -24.66909 | -46.13979 | 36173 ft | 364 kts | 244° |
| 2026-05-03 20:47 | -24.69546 | -46.18605 | 36174 ft | 361 kts | 244° |
| 2026-05-03 20:48 | -24.72216 | -46.23300 | 36175 ft | 363 kts | 244° |
| 2026-05-03 20:48 | -24.74882 | -46.27986 | 36174 ft | 362 kts | 244° |
| 2026-05-03 20:49 | -24.77536 | -46.32655 | 36175 ft | 361 kts | 244° |
| 2026-05-03 20:49 | -24.80196 | -46.37346 | 36175 ft | 361 kts | 244° |
| 2026-05-03 20:50 | -24.82858 | -46.42041 | 36174 ft | 361 kts | 244° |
| 2026-05-03 20:50 | -24.85518 | -46.46735 | 36182 ft | 361 kts | 244° |
| 2026-05-03 20:51 | -24.88180 | -46.51442 | 36191 ft | 361 kts | 244° |
| 2026-05-03 20:51 | -24.90847 | -46.56157 | 36191 ft | 360 kts | 244° |
| 2026-05-03 20:52 | -24.93482 | -46.60822 | 36192 ft | 362 kts | 244° |
| 2026-05-03 20:52 | -24.96140 | -46.65528 | 36192 ft | 360 kts | 244° |
| 2026-05-03 20:53 | -24.98793 | -46.70231 | 36193 ft | 359 kts | 244° |
| 2026-05-03 20:53 | -25.01385 | -46.74830 | 36194 ft | 359 kts | 244° |
| 2026-05-03 20:54 | -25.03826 | -46.79170 | 36195 ft | 359 kts | 244° |